createdAt,value
2024-02-18T00:03:24.343Z,76.02
2024-02-18T00:18:28.430Z,76.61
2024-02-18T00:33:30.961Z,77.69
2024-02-18T00:48:33.244Z,78.73
2024-02-18T01:03:36.666Z,79.13
2024-02-18T01:18:44.110Z,79.64
2024-02-18T01:33:47.575Z,76.28
2024-02-18T01:48:50.779Z,74.36
2024-02-18T02:03:55.748Z,73.87
2024-02-18T02:19:01.002Z,74.27
2024-02-18T02:34:03.143Z,74.80
2024-02-18T02:49:05.469Z,74.80
2024-02-18T03:04:07.643Z,74.84
2024-02-18T03:19:10.013Z,75.03
2024-02-18T03:34:12.213Z,75.82
2024-02-18T03:49:14.420Z,77.38
2024-02-18T04:04:17.184Z,78.87
2024-02-18T04:19:19.398Z,79.60
2024-02-18T04:34:23.871Z,79.54
2024-02-18T04:49:26.258Z,77.81
2024-02-18T05:04:33.110Z,79.17
2024-02-18T05:19:35.618Z,80.64
2024-02-18T05:34:38.997Z,82.74
2024-02-18T05:49:44.190Z,83.86
2024-02-18T06:04:46.985Z,84.50
2024-02-18T06:19:49.085Z,85.61
2024-02-18T06:34:51.324Z,86.11
2024-02-18T06:49:53.564Z,86.39
2024-02-18T07:04:55.765Z,86.23
2024-02-18T07:19:58.060Z,84.81
2024-02-18T07:35:00.462Z,83.70
2024-02-18T07:50:02.926Z,82.72
2024-02-18T08:05:05.622Z,81.26
2024-02-18T08:20:08.068Z,79.50
2024-02-18T08:35:10.391Z,78.21
2024-02-18T08:50:12.897Z,75.98
2024-02-18T09:05:15.242Z,74.69
2024-02-18T09:20:18.238Z,73.64
2024-02-18T09:35:20.689Z,69.33
2024-02-18T09:50:22.959Z,70.36
2024-02-18T10:05:25.161Z,68.94
2024-02-18T10:20:31.842Z,68.26
2024-02-18T10:35:34.102Z,68.53
2024-02-18T10:50:44.188Z,66.36
2024-02-18T11:05:46.885Z,65.66
2024-02-18T11:20:49.585Z,64.49
2024-02-18T11:36:14.438Z,62.52
2024-02-18T11:51:16.779Z,64.27
2024-02-18T12:06:19.321Z,64.27
2024-02-18T12:21:21.414Z,62.40
2024-02-18T12:36:23.477Z,61.93
2024-02-18T12:51:27.062Z,63.28
2024-02-18T13:06:30.763Z,59.92
2024-02-18T13:21:33.111Z,60.73
2024-02-18T13:36:41.100Z,60.46
2024-02-18T13:51:43.401Z,59.91
2024-02-18T14:06:45.550Z,61.03
2024-02-18T14:21:47.799Z,62.73
2024-02-18T14:36:49.879Z,63.07
2024-02-18T14:51:52.237Z,63.88
2024-02-18T15:06:54.633Z,63.52
2024-02-18T15:21:56.892Z,65.37
2024-02-18T15:36:58.920Z,66.97
2024-02-18T15:52:01.418Z,69.14
2024-02-18T16:07:04.689Z,71.95
2024-02-18T16:22:06.887Z,73.39
2024-02-18T16:37:09.049Z,75.57
2024-02-18T16:52:11.368Z,77.20
2024-02-18T17:07:15.112Z,79.02
2024-02-18T17:22:17.905Z,80.10
2024-02-18T17:37:20.086Z,80.18
2024-02-18T17:52:22.595Z,81.86
2024-02-18T18:07:24.800Z,81.65
2024-02-18T18:22:27.758Z,80.78
2024-02-18T18:37:29.943Z,80.39
2024-02-18T18:52:32.147Z,79.90
2024-02-18T19:07:34.244Z,79.93
2024-02-18T19:22:39.094Z,79.73
2024-02-18T19:37:41.238Z,79.91
2024-02-18T19:52:43.370Z,80.17
2024-02-18T20:07:48.214Z,80.79
2024-02-18T20:22:52.763Z,80.98
2024-02-18T20:37:54.931Z,81.51
2024-02-18T20:52:57.044Z,81.89
2024-02-18T21:08:03.611Z,80.98
2024-02-18T21:23:06.877Z,80.58
2024-02-18T21:38:09.210Z,80.48
2024-02-18T21:53:11.313Z,80.27
2024-02-18T22:08:13.370Z,79.92
2024-02-18T22:23:15.385Z,80.09
2024-02-18T22:38:17.407Z,79.90
2024-02-18T22:53:20.487Z,79.96
2024-02-18T23:08:22.729Z,80.67
2024-02-18T23:23:24.792Z,81.39
2024-02-18T23:38:26.944Z,81.86
2024-02-18T23:53:29.098Z,81.70
